SVVA/VLN METAR and TAF weather

Enter ICAO airport designator
Station Type Date Time Source
SVVA METAR 2023/02/03 21:00 UTC NOAA

SVVA 032100Z /////KT 9999 SCT016 32/20 Q1011


Station Type Date Time Source
SVVA Decoded METAR 2023/02/03 21:00 UTC NOAA

Valencia, Venezuela (SVVA) 10-10N 067-56W 431M
Feb 03, 2023 - 04:00 PM EST / 2023.02.03 2100 UTC
Visibility: greater than 7 mile(s):0
Sky conditions: partly cloudy
Temperature: 89 F (32 C)
Dew Point: 68 F (20 C)
Relative Humidity: 49%
Pressure (altimeter): 29.85 in. Hg (1011 hPa)
ob: SVVA 032100Z /////KT 9999 SCT016 32/20 Q1011
cycle: 21

Station Type Date Time Source
SVVA TAF 2023/02/03 18:45 UTC NOAA

TAF TAF SVVA 031600Z 0318/0418 18004KT 9999 FEW016 TX31/0319Z TN21/0409Z
TEMPO 0322/0402 05006KT 9999 FEW016
TEMPO 0406/0410 24004KT 9999 SCT016

Example: see airport list